Time;durP1;ratioP1;P1;durP2;ratioP2;P2;SDS_P1;SDS_P2;PMS_P1;PMS_P2;Temp;Humidity;BMP_temperature;BMP_pressure;BME280_temperature;BME280_humidity;BME280_pressure;Samples;Min_cycle;Max_cycle;Signal;HPM_P1;HPM_P2
2022/08/10 00:01:03;;;;;;;3.22;2.80;;;;;;;18.56;49.56;101885.03;4984499;28;20069;-29
2022/08/10 00:03:28;;;;;;;2.95;2.75;;;;;;;18.52;49.76;101883.34;4995527;28;20188;-28
2022/08/10 00:05:55;;;;;;;3.40;3.10;;;;;;;18.49;49.35;101883.41;4980286;28;20053;-29
2022/08/10 00:08:23;;;;;;;2.60;2.40;;;;;;;18.49;49.51;101888.75;4986072;28;20036;-29
2022/08/10 00:10:49;;;;;;;4.05;2.88;;;;;;;18.50;49.38;101882.50;4996975;28;20037;-29
2022/08/10 00:13:14;;;;;;;3.55;3.28;;;;;;;18.47;49.59;101882.56;4997100;28;20019;-29
2022/08/10 00:15:40;;;;;;;3.22;2.92;;;;;;;18.40;49.47;101887.19;4996559;28;20153;-29
2022/08/10 00:18:05;;;;;;;2.80;2.60;;;;;;;18.30;49.71;101881.16;4982975;28;20395;-28
2022/08/10 00:20:30;;;;;;;3.65;2.92;;;;;;;18.33;49.37;101890.91;4992193;28;20022;-28
2022/08/10 00:22:56;;;;;;;3.67;3.10;;;;;;;18.29;49.60;101879.41;4992819;28;20137;-29
2022/08/10 00:25:21;;;;;;;3.28;2.97;;;;;;;18.27;49.47;101875.88;4997440;28;20026;-29
2022/08/10 00:27:46;;;;;;;2.85;2.65;;;;;;;18.23;49.78;101876.88;4998393;28;20081;-29
2022/08/10 00:30:12;;;;;;;2.83;2.63;;;;;;;18.21;49.42;101881.38;4993533;28;20022;-29
2022/08/10 00:32:37;;;;;;;3.55;3.25;;;;;;;18.19;49.14;101872.50;4992586;28;20487;-28
2022/08/10 00:35:03;;;;;;;3.47;3.00;;;;;;;18.13;49.16;101872.63;4993002;28;20476;-29
2022/08/10 00:37:28;;;;;;;2.92;2.72;;;;;;;18.09;48.96;101874.50;4999291;28;20042;-29
2022/08/10 00:39:53;;;;;;;4.57;3.35;;;;;;;18.03;49.16;101872.81;4977809;28;20038;-26
2022/08/10 00:42:19;;;;;;;3.33;2.95;;;;;;;18.00;49.08;101875.53;4993480;28;20125;-29
2022/08/10 00:44:48;;;;;;;2.63;2.42;;;;;;;17.94;49.38;101873.88;4991796;28;20030;-29
2022/08/10 00:47:14;;;;;;;5.93;3.58;;;;;;;17.93;49.59;101868.56;4995974;28;20026;-27
2022/08/10 00:49:40;;;;;;;3.50;3.20;;;;;;;17.88;49.88;101862.47;4996035;28;20033;-29
2022/08/10 00:52:06;;;;;;;3.08;2.78;;;;;;;17.79;49.94;101864.44;4997100;28;20061;-29
2022/08/10 00:54:31;;;;;;;3.63;3.00;;;;;;;17.78;49.80;101872.47;4999713;28;20030;-28
2022/08/10 00:56:57;;;;;;;6.75;2.80;;;;;;;17.74;49.79;101868.09;4996548;28;20034;-26
2022/08/10 00:59:22;;;;;;;3.15;2.78;;;;;;;17.72;49.79;101873.47;4975475;28;20499;-29
2022/08/10 01:01:48;;;;;;;4.43;3.08;;;;;;;17.72;50.34;101880.56;4978108;28;20348;-29
2022/08/10 01:04:13;;;;;;;4.47;3.15;;;;;;;17.65;50.21;101877.16;5004358;28;20037;-29
2022/08/10 01:07:03;;;;;;;4.28;3.17;;;;;;;17.68;50.28;101877.09;4999899;28;20495;-29
2022/08/10 01:10:06;;;;;;;3.70;3.00;;;;;;;17.57;50.18;101880.84;4991957;28;20034;-28
2022/08/10 01:12:55;;;;;;;3.00;2.80;;;;;;;17.56;50.07;101883.53;4993493;28;20036;-28
2022/08/10 01:15:26;;;;;;;3.30;2.97;;;;;;;17.48;49.92;101889.03;4974136;28;20061;-29
2022/08/10 01:17:57;;;;;;;3.17;2.97;;;;;;;17.47;50.39;101881.91;4990064;28;20032;-28
2022/08/10 01:20:33;;;;;;;3.42;3.13;;;;;;;17.40;50.16;101873.16;4975442;28;20474;-29
2022/08/10 01:23:17;;;;;;;3.40;3.10;;;;;;;17.36;50.52;101886.56;4997141;28;20484;-29
2022/08/10 01:25:55;;;;;;;3.20;2.90;;;;;;;17.37;50.62;101886.56;4994733;28;20125;-29
2022/08/10 01:29:04;;;;;;;3.35;3.05;;;;;;;17.29;51.06;101891.16;5011788;28;20033;-27
2022/08/10 01:31:33;;;;;;;2.92;2.72;;;;;;;17.25;50.97;101893.00;4997743;28;20056;-29
2022/08/10 01:34:04;;;;;;;5.78;3.13;;;;;;;17.17;51.13;101887.78;4997211;28;20113;-29
2022/08/10 01:36:30;;;;;;;;;;;;;;;17.22;51.08;101895.72;4974292;28;20282;-28
2022/08/10 01:38:57;;;;;;;3.67;3.38;;;;;;;17.17;51.29;101886.91;4974197;28;19917;-29
2022/08/10 01:41:26;;;;;;;4.93;3.40;;;;;;;17.17;51.70;101892.22;4970587;28;20034;-28
2022/08/10 01:44:12;;;;;;;3.80;3.47;;;;;;;17.11;52.08;101882.56;4991377;28;20077;-29
2022/08/10 01:46:40;;;;;;;5.38;3.08;;;;;;;17.11;52.29;101881.69;5003886;28;20038;-28
2022/08/10 01:49:08;;;;;;;4.35;3.47;;;;;;;17.08;52.80;101881.75;4980078;28;20034;-28
2022/08/10 01:51:39;;;;;;;4.30;3.30;;;;;;;17.03;52.17;101874.69;5002698;28;20085;-29
2022/08/10 01:54:10;;;;;;;3.38;3.05;;;;;;;17.00;52.09;101874.72;5004941;28;20468;-28
2022/08/10 01:56:36;;;;;;;;;;;;;;;16.95;52.33;101881.94;4995233;28;20503;-29
2022/08/10 01:59:06;;;;;;;3.80;3.50;;;;;;;16.95;52.12;101871.28;5001911;28;19913;-29
2022/08/10 02:01:41;;;;;;;3.78;3.45;;;;;;;16.92;52.10;101874.88;4992097;28;20026;-29
2022/08/10 02:04:09;;;;;;;3.95;3.20;;;;;;;16.95;52.26;101881.94;4984282;28;20214;-29
2022/08/10 02:06:38;;;;;;;3.13;2.88;;;;;;;16.87;52.06;101873.19;4974130;28;20067;-28
2022/08/10 02:09:04;;;;;;;3.63;3.33;;;;;;;16.87;52.52;101873.19;4985179;28;20456;-27
2022/08/10 02:11:30;;;;;;;3.40;3.20;;;;;;;16.83;52.70;101877.66;4986443;28;20042;-29
2022/08/10 02:13:56;;;;;;;4.38;3.35;;;;;;;16.83;53.50;101874.13;5004549;28;20388;-28
2022/08/10 02:16:24;;;;;;;3.67;3.38;;;;;;;16.75;53.29;101868.94;4958093;28;20089;-28
2022/08/10 02:18:51;;;;;;;3.22;3.03;;;;;;;16.70;53.22;101869.00;4989835;28;20039;-29
2022/08/10 02:21:17;;;;;;;6.05;3.58;;;;;;;16.69;53.35;101875.22;4971713;28;20030;-29
2022/08/10 02:23:43;;;;;;;3.55;3.20;;;;;;;16.67;53.07;101872.59;4988612;28;20022;-29
2022/08/10 02:26:10;;;;;;;4.05;3.75;;;;;;;16.67;52.91;101877.03;5001505;28;20042;-29
2022/08/10 02:28:37;;;;;;;4.47;3.45;;;;;;;16.66;52.91;101876.16;4972372;28;20038;-28
2022/08/10 02:31:05;;;;;;;3.60;3.30;;;;;;;16.64;52.59;101882.41;4970313;28;20027;-29
2022/08/10 02:33:32;;;;;;;3.85;3.40;;;;;;;16.57;52.51;101886.94;4990531;28;20018;-29
2022/08/10 02:35:59;;;;;;;4.57;3.53;;;;;;;16.58;52.58;101882.50;4986794;28;20026;-29
2022/08/10 02:38:33;;;;;;;4.55;3.40;;;;;;;16.54;52.87;101871.88;4976830;28;20026;-29
2022/08/10 02:41:10;;;;;;;4.10;3.70;;;;;;;16.54;52.95;101882.53;4992743;28;20038;-29
2022/08/10 02:43:52;;;;;;;3.78;3.38;;;;;;;16.53;52.58;101890.56;4999997;28;20114;-28
2022/08/10 02:46:24;;;;;;;3.75;3.40;;;;;;;16.48;52.71;101889.75;4978010;28;20105;-27
2022/08/10 02:48:59;;;;;;;4.75;3.45;;;;;;;16.48;52.65;101887.09;4986761;28;20484;-26
2022/08/10 02:51:45;;;;;;;4.18;3.55;;;;;;;16.45;52.99;101893.34;4996889;28;20101;-29
2022/08/10 02:54:17;;;;;;;4.32;3.65;;;;;;;16.39;52.87;101894.31;5008833;28;20030;-29
2022/08/10 02:56:55;;;;;;;6.70;3.67;;;;;;;16.41;52.88;101891.63;4970093;28;20397;-29
2022/08/10 02:59:28;;;;;;;4.00;3.60;;;;;;;16.41;52.97;101887.16;5014527;28;20021;-29
2022/08/10 03:01:57;;;;;;;3.38;3.00;;;;;;;16.36;52.90;101890.78;5005136;28;20022;-29
2022/08/10 03:04:28;;;;;;;4.47;3.60;;;;;;;16.34;52.83;101896.13;4972448;28;20045;-27
2022/08/10 03:06:56;;;;;;;4.45;3.47;;;;;;;16.33;52.72;101885.50;4978747;28;20069;-29
2022/08/10 03:09:24;;;;;;;4.00;3.65;;;;;;;16.31;52.96;101890.88;4990294;28;20026;-29
2022/08/10 03:11:50;;;;;;;4.22;3.90;;;;;;;16.27;52.85;101891.78;4990819;28;20041;-29
2022/08/10 03:14:17;;;;;;;6.32;3.85;;;;;;;16.27;52.67;101894.47;4991933;28;20576;-29
2022/08/10 03:16:43;;;;;;;3.92;3.53;;;;;;;16.27;52.89;101895.34;4985151;28;20377;-29
2022/08/10 03:19:10;;;;;;;6.10;3.47;;;;;;;16.26;52.91;101901.59;4980428;28;20065;-29
2022/08/10 03:21:35;;;;;;;4.45;4.05;;;;;;;16.26;52.92;101898.91;5007775;28;20501;-29
2022/08/10 03:24:01;;;;;;;3.75;3.45;;;;;;;16.26;53.05;101908.69;5002205;28;20531;-29
2022/08/10 03:26:29;;;;;;;4.18;3.70;;;;;;;16.27;53.18;101898.00;4976966;28;20488;-28
2022/08/10 03:28:55;;;;;;;4.00;3.55;;;;;;;16.26;53.38;101890.94;4981155;28;20030;-29
2022/08/10 03:31:20;;;;;;;5.60;4.20;;;;;;;16.22;53.30;101902.53;4977249;28;20029;-29
2022/08/10 03:33:46;;;;;;;3.83;3.33;;;;;;;16.23;53.37;101900.72;5011976;28;20037;-29
2022/08/10 03:36:12;;;;;;;4.57;4.25;;;;;;;16.22;53.26;101899.88;4993585;28;20030;-29
2022/08/10 03:38:39;;;;;;;5.45;3.83;;;;;;;16.21;53.29;101899.88;5007273;28;20294;-29
2022/08/10 03:41:08;;;;;;;7.07;4.10;;;;;;;16.27;53.61;101894.47;4999178;28;20038;-29
2022/08/10 03:43:34;;;;;;;6.13;3.30;;;;;;;16.22;53.83;101901.63;4985845;28;20030;-29
2022/08/10 03:46:02;;;;;;;6.93;3.45;;;;;;;16.22;53.88;101906.97;5006033;28;20030;-29
2022/08/10 03:48:28;;;;;;;4.97;3.55;;;;;;;16.20;53.94;101900.78;4980876;28;20172;-29
2022/08/10 03:50:55;;;;;;;4.72;3.83;;;;;;;16.15;53.81;101904.38;4995957;28;20022;-29
2022/08/10 03:53:21;;;;;;;6.47;3.92;;;;;;;16.19;53.80;101910.53;4994532;28;20114;-29
2022/08/10 03:55:46;;;;;;;4.07;3.72;;;;;;;16.12;53.56;101900.88;4994984;28;20033;-29
2022/08/10 03:58:12;;;;;;;5.00;3.95;;;;;;;16.13;53.35;101907.94;4974418;28;20072;-29
2022/08/10 04:00:38;;;;;;;4.28;3.88;;;;;;;16.08;53.45;101899.16;4976486;28;20035;-29
2022/08/10 04:03:04;;;;;;;5.35;3.33;;;;;;;16.08;53.55;101900.03;5007900;28;20133;-29
2022/08/10 04:05:33;;;;;;;3.88;3.50;;;;;;;16.05;54.02;101902.75;4975885;28;20370;-29
2022/08/10 04:07:59;;;;;;;5.60;3.83;;;;;;;16.02;53.84;101900.13;4996913;28;20026;-29
2022/08/10 04:10:25;;;;;;;4.10;3.70;;;;;;;16.06;53.74;101895.63;4991161;28;20030;-29
2022/08/10 04:12:50;;;;;;;4.50;3.88;;;;;;;16.02;53.77;101901.00;4991162;28;20030;-29
2022/08/10 04:15:15;;;;;;;4.28;3.85;;;;;;;15.97;54.24;101902.81;4990358;28;20030;-29
2022/08/10 04:17:41;;;;;;;4.45;3.72;;;;;;;15.96;53.94;101906.38;4992403;28;20042;-29
2022/08/10 04:20:16;;;;;;;5.60;3.72;;;;;;;15.99;53.85;101910.78;4975543;28;20030;-29
2022/08/10 04:22:43;;;;;;;3.90;3.45;;;;;;;15.94;54.05;101910.81;4992924;28;20034;-28
2022/08/10 04:25:09;;;;;;;4.32;3.92;;;;;;;15.94;54.21;101918.78;4990285;28;20038;-29
2022/08/10 04:27:35;;;;;;;4.35;3.50;;;;;;;15.94;54.47;101913.47;4969267;28;20084;-29
2022/08/10 04:30:00;;;;;;;6.47;3.90;;;;;;;15.92;54.21;101915.28;4993253;28;20530;-28
2022/08/10 04:32:27;;;;;;;5.97;4.20;;;;;;;15.89;54.55;101915.31;4993912;28;20432;-29
2022/08/10 04:34:53;;;;;;;4.35;3.95;;;;;;;15.89;54.05;101915.31;4978892;28;20054;-28
2022/08/10 04:37:20;;;;;;;6.15;3.83;;;;;;;15.88;54.01;101905.56;4989570;28;20061;-29
2022/08/10 04:39:45;;;;;;;4.53;3.90;;;;;;;15.88;54.01;101911.75;5006048;28;20092;-28
2022/08/10 04:42:11;;;;;;;7.22;4.18;;;;;;;15.91;54.81;101908.19;4998236;28;20030;-29
2022/08/10 04:44:36;;;;;;;5.97;4.18;;;;;;;15.87;54.21;101911.81;5007878;28;20061;-29
2022/08/10 04:47:01;;;;;;;5.00;3.60;;;;;;;15.85;53.80;101910.91;4990911;28;20026;-29
2022/08/10 04:49:27;;;;;;;4.65;3.88;;;;;;;15.81;53.77;101917.19;4995470;28;20033;-29
2022/08/10 04:51:52;;;;;;;4.05;3.75;;;;;;;15.87;53.90;101917.13;4972603;28;20042;-29
2022/08/10 04:54:17;;;;;;;3.35;3.05;;;;;;;15.87;53.79;101912.66;4994424;28;20073;-29
2022/08/10 04:56:43;;;;;;;3.97;3.65;;;;;;;15.92;53.63;101920.59;4972581;28;20384;-29
2022/08/10 04:59:10;;;;;;;3.80;3.50;;;;;;;15.93;53.48;101918.84;4981989;28;20022;-29
2022/08/10 05:01:37;;;;;;;4.28;3.72;;;;;;;15.89;53.70;101920.63;4978958;28;20062;-29
2022/08/10 05:04:02;;;;;;;5.45;3.95;;;;;;;15.94;53.51;101924.09;4992084;28;20026;-29
2022/08/10 05:06:28;;;;;;;4.72;3.88;;;;;;;15.94;53.57;101926.75;4992257;28;20117;-29
2022/08/10 05:08:53;;;;;;;4.07;3.67;;;;;;;15.96;54.00;101927.69;4974952;28;20076;-29
2022/08/10 05:11:18;;;;;;;4.47;4.07;;;;;;;15.99;54.54;101924.09;4992549;28;20037;-29
2022/08/10 05:13:44;;;;;;;5.80;4.20;;;;;;;16.01;54.30;101925.81;4992389;28;20032;-28
2022/08/10 05:16:10;;;;;;;4.25;3.85;;;;;;;16.07;53.85;101924.00;4975076;28;20117;-29
2022/08/10 05:18:35;;;;;;;4.85;3.70;;;;;;;16.08;53.65;101936.41;4992214;28;20026;-29
2022/08/10 05:21:00;;;;;;;5.32;4.20;;;;;;;16.10;53.59;101930.16;4974790;28;20041;-29
2022/08/10 05:23:26;;;;;;;4.45;3.60;;;;;;;16.18;53.40;101934.50;4992116;28;20034;-29
2022/08/10 05:25:51;;;;;;;3.95;3.65;;;;;;;16.18;53.55;101938.06;4974784;28;20030;-28
2022/08/10 05:28:16;;;;;;;3.88;3.47;;;;;;;16.18;53.64;101932.75;4992029;28;20080;-29
2022/08/10 05:30:41;;;;;;;4.18;3.78;;;;;;;16.22;53.51;101939.78;4992434;28;20023;-29
2022/08/10 05:33:07;;;;;;;6.20;4.00;;;;;;;16.22;53.80;101939.78;4991570;28;20507;-29
2022/08/10 05:35:33;;;;;;;4.80;3.67;;;;;;;16.29;53.57;101944.13;5006904;28;20125;-28
2022/08/10 05:37:59;;;;;;;5.43;3.80;;;;;;;16.34;53.85;101937.88;4991768;28;20096;-29
2022/08/10 05:40:26;;;;;;;3.78;3.47;;;;;;;16.40;53.51;101944.00;4974553;28;20026;-29
2022/08/10 05:42:51;;;;;;;3.90;3.50;;;;;;;16.38;54.08;101937.78;4991736;28;20054;-29
2022/08/10 05:45:23;;;;;;;3.95;3.53;;;;;;;16.49;53.18;101943.00;4992130;28;20507;-29
2022/08/10 05:47:49;;;;;;;4.20;3.35;;;;;;;16.57;52.88;101940.19;4991921;28;20026;-29
2022/08/10 05:50:20;;;;;;;4.28;3.40;;;;;;;16.63;53.30;101941.91;4991499;28;20118;-29
2022/08/10 05:52:45;;;;;;;5.57;3.05;;;;;;;16.71;52.84;101942.69;4974664;28;20456;-29
2022/08/10 05:55:11;;;;;;;4.25;3.63;;;;;;;16.79;52.91;101942.56;4991761;28;20636;-29
2022/08/10 05:57:36;;;;;;;6.47;3.92;;;;;;;16.86;54.87;101946.91;4958197;28;20517;-29
2022/08/10 06:00:06;;;;;;;4.95;3.35;;;;;;;16.94;53.59;101933.44;4974340;28;20439;-29
2022/08/10 06:02:33;;;;;;;3.92;3.63;;;;;;;17.01;53.92;101935.09;4992025;28;20022;-29
2022/08/10 06:05:03;;;;;;;4.53;3.50;;;;;;;17.09;55.41;101937.69;4974631;28;20031;-29
2022/08/10 06:07:29;;;;;;;4.47;3.78;;;;;;;17.16;54.02;101938.47;4974254;28;20034;-29
2022/08/10 06:09:55;;;;;;;4.90;3.83;;;;;;;17.24;55.00;101936.53;4958270;28;20045;-29
2022/08/10 06:12:22;;;;;;;4.07;3.67;;;;;;;17.31;55.86;101932.88;4993309;28;20050;-29
2022/08/10 06:15:01;;;;;;;5.25;3.90;;;;;;;17.38;55.32;101939.00;4994685;28;20038;-28
2022/08/10 06:17:28;;;;;;;8.07;3.88;;;;;;;17.48;55.34;101936.16;4979140;28;20399;-29
2022/08/10 06:19:53;;;;;;;3.75;3.40;;;;;;;17.53;54.24;101942.28;4995287;28;20023;-29
2022/08/10 06:22:19;;;;;;;6.55;3.65;;;;;;;17.61;53.77;101944.81;5010181;28;20045;-29
2022/08/10 06:24:45;;;;;;;5.10;3.60;;;;;;;17.68;55.44;101942.00;4995153;28;20026;-29
2022/08/10 06:27:12;;;;;;;6.85;4.45;;;;;;;17.77;56.20;101943.59;5010488;28;20030;-29
2022/08/10 06:29:40;;;;;;;7.00;3.47;;;;;;;17.89;56.69;101946.94;4995320;28;20026;-29
2022/08/10 06:32:06;;;;;;;6.45;3.72;;;;;;;17.94;56.09;101947.75;4993426;28;20053;-29
2022/08/10 06:34:38;;;;;;;5.15;3.90;;;;;;;18.02;55.78;101934.25;5010264;28;20022;-29
2022/08/10 06:37:05;;;;;;;6.75;4.05;;;;;;;18.09;55.21;101941.25;4977479;28;20488;-29
2022/08/10 06:39:31;;;;;;;10.20;4.32;;;;;;;18.19;56.17;101947.28;4977798;28;20040;-29
2022/08/10 06:42:02;;;;;;;6.90;4.82;;;;;;;18.25;55.26;101939.16;4995148;28;20358;-29
2022/08/10 06:44:31;;;;;;;4.85;3.83;;;;;;;18.36;54.74;101933.56;5009553;28;20485;-29
2022/08/10 06:46:58;;;;;;;6.45;3.90;;;;;;;18.44;54.74;101933.41;4977180;28;20502;-29
2022/08/10 06:49:23;;;;;;;5.75;3.97;;;;;;;18.56;54.54;101943.81;4977370;28;20388;-28
2022/08/10 06:51:53;;;;;;;4.90;3.55;;;;;;;18.63;54.57;101940.97;4994538;28;20034;-29
2022/08/10 06:54:21;;;;;;;7.13;4.30;;;;;;;18.77;53.72;101946.88;4984030;28;20516;-29
2022/08/10 06:56:47;;;;;;;3.95;3.58;;;;;;;18.87;53.67;101942.19;4977177;28;20121;-28
2022/08/10 06:59:21;;;;;;;4.40;4.00;;;;;;;18.95;54.17;101942.03;4994633;28;20109;-29
2022/08/10 07:01:56;;;;;;;5.10;4.60;;;;;;;19.07;53.97;101930.16;4977332;28;20110;-29
2022/08/10 07:04:29;;;;;;;5.05;3.78;;;;;;;19.24;53.82;101937.78;4994608;28;20033;-29
2022/08/10 07:06:55;;;;;;;5.25;4.05;;;;;;;19.26;54.21;101935.94;4994581;28;20026;-29
2022/08/10 07:09:21;;;;;;;4.32;3.92;;;;;;;19.35;54.61;101935.69;4976986;28;20129;-29
2022/08/10 07:11:48;;;;;;;4.85;4.10;;;;;;;19.48;54.71;101936.25;4961125;28;20118;-29
2022/08/10 07:14:16;;;;;;;4.47;4.07;;;;;;;19.64;54.56;101940.34;4956883;28;20046;-28
2022/08/10 07:16:42;;;;;;;5.57;4.30;;;;;;;19.73;54.27;101932.94;4974802;28;20488;-29
2022/08/10 07:19:09;;;;;;;6.93;4.43;;;;;;;19.87;54.41;101937.00;4974677;28;20026;-29
2022/08/10 07:21:37;;;;;;;6.05;4.15;;;;;;;19.94;55.09;101932.38;4977131;28;20034;-29
2022/08/10 07:24:03;;;;;;;6.97;4.30;;;;;;;20.12;54.37;101931.88;4993172;28;20026;-29
2022/08/10 07:26:29;;;;;;;6.38;5.32;;;;;;;20.22;54.66;101931.59;4994441;28;20403;-28
2022/08/10 07:28:55;;;;;;;7.00;4.28;;;;;;;20.36;53.80;101929.38;4977291;28;20029;-28
2022/08/10 07:31:21;;;;;;;4.85;4.18;;;;;;;20.43;53.97;101924.69;4994019;28;20030;-29
2022/08/10 07:33:48;;;;;;;5.55;4.18;;;;;;;20.53;53.73;101936.00;4976725;28;20033;-28
2022/08/10 07:36:14;;;;;;;11.00;4.82;;;;;;;20.66;54.36;101935.59;4994201;28;20045;-29
2022/08/10 07:38:40;;;;;;;9.07;5.45;;;;;;;20.74;53.78;101930.91;4993910;28;20026;-29
2022/08/10 07:41:07;;;;;;;6.75;4.40;;;;;;;20.93;53.25;101938.34;5009214;28;20488;-29
2022/08/10 07:43:36;;;;;;;6.10;4.85;;;;;;;21.12;52.91;101939.53;5008904;28;20034;-29
2022/08/10 07:46:08;;;;;;;8.98;4.22;;;;;;;21.19;53.23;101939.28;4993759;28;20035;-29
2022/08/10 07:48:44;;;;;;;7.95;4.50;;;;;;;21.32;52.70;101939.75;4994055;28;20030;-29
2022/08/10 07:51:10;;;;;;;9.38;4.50;;;;;;;21.47;53.29;101943.72;4992009;28;20059;-29
2022/08/10 07:53:43;;;;;;;8.77;4.80;;;;;;;21.51;52.81;101945.38;4993279;28;20098;-29
2022/08/10 07:56:10;;;;;;;7.18;4.60;;;;;;;21.66;52.44;101942.16;4992828;28;20128;-29
2022/08/10 07:58:56;;;;;;;9.15;4.47;;;;;;;21.87;52.12;101939.63;4993736;28;20026;-29
2022/08/10 08:01:27;;;;;;;6.88;4.72;;;;;;;22.06;51.78;101947.00;5008444;28;20296;-29
2022/08/10 08:03:53;;;;;;;5.95;3.88;;;;;;;22.09;51.91;101938.84;4976163;28;20038;-29
2022/08/10 08:06:19;;;;;;;6.35;4.25;;;;;;;22.24;51.52;101941.88;4976262;28;20037;-29
2022/08/10 08:08:45;;;;;;;9.82;4.78;;;;;;;22.37;51.09;101935.06;4992617;28;20034;-28
2022/08/10 08:11:11;;;;;;;8.70;4.60;;;;;;;22.50;51.03;101940.84;5008426;28;20034;-29
2022/08/10 08:13:37;;;;;;;6.90;4.68;;;;;;;22.60;50.97;101929.78;4975566;28;20081;-29
2022/08/10 08:16:04;;;;;;;5.55;4.40;;;;;;;22.66;51.08;101929.50;5007847;28;20113;-29
2022/08/10 08:18:31;;;;;;;6.90;4.75;;;;;;;22.84;51.22;101933.25;4975810;28;20038;-29
2022/08/10 08:20:57;;;;;;;7.93;4.95;;;;;;;22.99;50.37;101922.81;4975914;28;20095;-29
2022/08/10 08:23:24;;;;;;;5.90;4.20;;;;;;;23.08;50.42;101925.13;4975346;28;20061;-29
2022/08/10 08:25:49;;;;;;;6.75;4.93;;;;;;;23.22;49.77;101920.94;4992020;28;20377;-29
2022/08/10 08:28:15;;;;;;;8.15;4.13;;;;;;;23.28;49.42;101921.53;4993078;28;20061;-29
2022/08/10 08:30:41;;;;;;;6.80;4.30;;;;;;;23.38;49.53;101926.59;4992993;28;20440;-29
2022/08/10 08:33:08;;;;;;;4.78;3.78;;;;;;;23.54;48.98;101924.09;4992934;28;20512;-29
2022/08/10 08:35:34;;;;;;;4.53;3.35;;;;;;;23.55;48.76;101932.09;4993312;28;20026;-29
2022/08/10 08:38:00;;;;;;;4.55;3.75;;;;;;;23.70;47.94;101926.97;4975253;28;20110;-29
2022/08/10 08:40:28;;;;;;;6.85;4.10;;;;;;;23.84;48.21;101923.63;5008082;28;20543;-29
2022/08/10 08:43:15;;;;;;;6.40;4.13;;;;;;;23.95;47.63;101920.47;4992654;28;20105;-29
2022/08/10 08:46:08;;;;;;;6.57;3.53;;;;;;;24.09;47.35;101922.50;4991215;28;20046;-29
2022/08/10 08:48:56;;;;;;;4.50;3.78;;;;;;;24.28;47.55;101919.88;4973622;28;20051;-29
2022/08/10 08:52:03;;;;;;;5.63;3.88;;;;;;;24.34;47.02;101910.63;4972550;28;20074;-29
2022/08/10 08:54:42;;;;;;;5.55;4.07;;;;;;;24.42;47.05;101908.41;4932089;29;20023;-29
2022/08/10 08:57:47;;;;;;;6.18;3.28;;;;;;;24.68;46.56;101903.53;4932464;29;20063;-29
2022/08/10 09:00:39;;;;;;;5.50;4.10;;;;;;;24.88;47.49;101907.13;4964555;28;20113;-29
2022/08/10 09:03:33;;;;;;;4.13;3.10;;;;;;;25.05;46.25;101908.97;5007661;28;20084;-29
2022/08/10 09:06:05;;;;;;;5.10;3.00;;;;;;;25.10;46.44;101906.00;4992732;28;20089;-29
2022/08/10 09:08:53;;;;;;;4.20;3.60;;;;;;;25.23;45.78;101904.44;4992738;28;20026;-29
2022/08/10 09:11:18;;;;;;;3.15;2.67;;;;;;;25.36;45.59;101907.38;4975215;28;20365;-29
2022/08/10 09:13:53;;;;;;;6.63;4.18;;;;;;;25.47;45.55;101906.78;4992365;28;20026;-29
2022/08/10 09:16:36;;;;;;;5.93;3.63;;;;;;;25.55;44.75;101903.69;4990904;28;20038;-29
2022/08/10 09:19:09;;;;;;;6.18;3.83;;;;;;;25.67;45.54;101906.72;4991067;28;20030;-29
2022/08/10 09:21:55;;;;;;;5.20;3.63;;;;;;;25.77;44.64;101902.53;4992382;28;20026;-31
2022/08/10 09:24:28;;;;;;;7.30;3.45;;;;;;;25.86;44.05;101898.47;4974974;28;20081;-29
2022/08/10 09:26:56;;;;;;;5.60;3.28;;;;;;;25.93;44.25;101902.59;4974830;28;20468;-29
2022/08/10 09:29:27;;;;;;;5.90;3.38;;;;;;;25.91;43.31;101899.06;4974658;28;20037;-29
2022/08/10 09:32:07;;;;;;;4.00;3.20;;;;;;;26.11;43.25;101899.81;4975195;28;20049;-29
2022/08/10 09:34:44;;;;;;;7.28;3.50;;;;;;;26.17;43.25;101893.19;4992345;28;20022;-29
2022/08/10 09:37:22;;;;;;;3.40;3.10;;;;;;;26.36;43.86;101893.03;4974599;28;20058;-29
2022/08/10 09:39:52;;;;;;;6.03;3.83;;;;;;;26.48;43.32;101895.03;5007315;28;20033;-29
2022/08/10 09:42:27;;;;;;;6.20;3.57;;;;;;;26.57;42.59;101896.34;4991888;28;20038;-29
2022/08/10 09:45:19;;;;;;;5.13;3.28;;;;;;;26.73;43.17;101895.44;4974500;28;20109;-29
2022/08/10 09:47:57;;;;;;;4.20;3.28;;;;;;;26.75;42.80;101888.13;4994476;28;20060;-29
2022/08/10 09:50:54;;;;;;;4.63;3.38;;;;;;;26.87;42.40;101887.38;4978655;28;20030;-29
2022/08/10 09:53:26;;;;;;;4.50;3.55;;;;;;;26.96;41.90;101883.28;4996069;28;20109;-29
2022/08/10 09:56:01;;;;;;;5.78;4.78;;;;;;;27.10;41.99;101870.75;4978290;28;20333;-29
2022/08/10 09:58:35;;;;;;;7.20;4.80;;;;;;;27.22;41.67;101877.25;4978504;28;20023;-29
2022/08/10 10:01:19;;;;;;;6.20;3.70;;;;;;;27.30;41.28;101874.94;5010992;28;20049;-29
2022/08/10 10:03:54;;;;;;;6.85;3.80;;;;;;;27.36;40.49;101882.69;4978247;28;20045;-29
2022/08/10 10:06:25;;;;;;;6.38;3.95;;;;;;;27.46;41.22;101879.41;4996071;28;20275;-29
2022/08/10 10:08:50;;;;;;;7.97;5.82;;;;;;;27.59;41.55;101877.69;4978201;28;20060;-29
2022/08/10 10:11:20;;;;;;;5.83;4.83;;;;;;;27.71;40.95;101869.78;4995788;28;20057;-29
2022/08/10 10:14:07;;;;;;;6.30;4.53;;;;;;;27.80;40.15;101869.19;4978043;28;20266;-29
2022/08/10 10:16:47;;;;;;;8.85;5.13;;;;;;;27.95;40.78;101861.03;4977682;28;20037;-29
2022/08/10 10:19:16;;;;;;;;;;;;;;;28.04;40.65;101858.59;4995940;28;20430;-29
2022/08/10 10:22:07;;;;;;;5.65;4.22;;;;;;;28.18;39.93;101851.41;4978182;28;19909;-29
2022/08/10 10:24:46;;;;;;;;;;;;;;;28.23;38.85;101854.69;4995840;28;20050;-29
2022/08/10 10:27:26;;;;;;;8.57;3.60;;;;;;;28.21;38.76;101845.78;4995306;28;19914;-29
2022/08/10 10:30:03;;;;;;;5.27;4.60;;;;;;;28.37;38.74;101847.53;4978004;28;20641;-29
2022/08/10 10:32:29;;;;;;;4.30;3.90;;;;;;;28.42;38.25;101837.22;4978407;28;20088;-29
2022/08/10 10:35:19;;;;;;;6.77;4.87;;;;;;;28.50;39.09;101840.28;4995051;28;20124;-29
2022/08/10 10:37:46;;;;;;;6.03;4.57;;;;;;;28.68;38.97;101832.72;4994750;28;20455;-29
2022/08/10 10:40:13;;;;;;;6.32;5.15;;;;;;;28.67;37.97;101835.53;5010253;28;20030;-29
2022/08/10 10:42:48;;;;;;;5.40;4.80;;;;;;;28.78;37.76;101830.25;4994872;28;20188;-29
2022/08/10 10:45:19;;;;;;;6.47;5.32;;;;;;;28.88;37.73;101835.06;4994977;28;20492;-29
2022/08/10 10:47:50;;;;;;;7.70;4.05;;;;;;;29.05;38.80;101832.06;5010108;28;20050;-29
2022/08/10 10:50:49;;;;;;;6.53;4.22;;;;;;;29.16;38.71;101836.75;4976977;28;20026;-27
2022/08/10 10:53:31;;;;;;;5.70;4.13;;;;;;;29.35;38.27;101824.56;4991613;28;20057;-29
2022/08/10 10:56:35;;;;;;;4.10;3.63;;;;;;;29.40;37.56;101824.22;4993676;28;20130;-29
2022/08/10 10:59:16;;;;;;;6.10;3.70;;;;;;;29.52;37.34;101815.22;4993737;28;20019;-29
2022/08/10 11:01:57;;;;;;;6.05;3.70;;;;;;;29.69;37.75;101821.28;4994973;28;20026;-29
2022/08/10 11:04:34;;;;;;;4.80;3.72;;;;;;;29.82;37.20;101811.28;4994927;28;20037;-29
2022/08/10 11:07:04;;;;;;;3.85;3.05;;;;;;;29.98;37.17;101807.41;4994318;28;20062;-29
2022/08/10 11:09:38;;;;;;;7.72;3.00;;;;;;;30.12;37.15;101805.50;4976759;28;20499;-29
2022/08/10 11:12:15;;;;;;;5.00;3.33;;;;;;;30.21;37.05;101799.41;4977326;28;20030;-29
2022/08/10 11:14:51;;;;;;;3.40;2.65;;;;;;;30.22;36.42;101801.13;4994295;28;20476;-29
2022/08/10 11:17:19;;;;;;;4.22;2.60;;;;;;;30.30;35.39;101798.69;4976940;28;20404;-29
2022/08/10 11:20:04;;;;;;;3.28;2.97;;;;;;;30.52;36.13;101797.06;5009316;28;20381;-29
2022/08/10 11:22:53;;;;;;;4.70;3.05;;;;;;;30.69;35.10;101801.19;5008943;28;20049;-29
2022/08/10 11:25:30;;;;;;;3.15;2.58;;;;;;;30.81;35.65;101796.66;4993868;28;20039;-29
2022/08/10 11:28:26;;;;;;;3.80;2.55;;;;;;;30.73;35.17;101791.78;4994055;28;20076;-29
2022/08/10 11:31:06;;;;;;;3.00;2.60;;;;;;;30.78;34.50;101802.38;4994236;28;20084;-29
2022/08/10 11:34:15;;;;;;;4.13;3.17;;;;;;;30.82;34.65;101802.97;5009007;28;20032;-29
2022/08/10 11:37:02;;;;;;;4.43;2.83;;;;;;;30.81;34.90;101803.97;4946971;28;20539;-29
2022/08/10 11:39:35;;;;;;;6.40;3.08;;;;;;;30.74;34.35;101800.84;4993766;28;20396;-29
2022/08/10 11:42:21;;;;;;;3.97;3.30;;;;;;;30.72;34.27;101800.97;4993821;28;20369;-29
2022/08/10 11:44:56;;;;;;;3.97;2.97;;;;;;;30.70;34.51;101791.16;4993657;28;20500;-29